Time;durP1;ratioP1;P1;durP2;ratioP2;P2;SDS_P1;SDS_P2;PMS_P1;PMS_P2;Temp;Humidity;BMP_temperature;BMP_pressure;BME280_temperature;BME280_humidity;BME280_pressure;Samples;Min_cycle;Max_cycle;Signal;HPM_P1;HPM_P2
2022/11/14 00:00:30;;;;;;;;;;;;;;;7.53;79.30;100990.72;5049902;28;19970;-81
2022/11/14 00:02:58;;;;;;;;;;;;;;;7.42;78.70;100987.03;5049415;28;19973;-81
2022/11/14 00:05:24;;;;;;;;;;;;;;;7.43;78.05;100987.88;5049853;28;20020;-81
2022/11/14 00:07:49;;;;;;;;;;;;;;;7.37;77.94;100986.06;5049950;28;20011;-82
2022/11/14 00:10:15;;;;;;;;;;;;;;;7.26;78.03;100979.69;5049460;28;19956;-81
2022/11/14 00:12:41;;;;;;;;;;;;;;;7.27;78.06;100984.97;5048957;28;20464;-82
2022/11/14 00:15:06;;;;;;;;;;;;;;;7.15;78.33;100982.13;5049686;28;20706;-82
2022/11/14 00:17:32;;;;;;;;;;;;;;;7.11;78.91;100978.56;5049199;28;20275;-82
2022/11/14 00:19:57;;;;;;;;;;;;;;;6.97;78.31;100980.03;5049060;28;19917;-82
2022/11/14 00:22:22;;;;;;;;;;;;;;;6.89;78.76;100973.72;5049332;28;19972;-82
2022/11/14 00:24:48;;;;;;;;;;;;;;;6.70;79.50;100972.47;5049218;28;20199;-82
2022/11/14 00:27:13;;;;;;;;;;;;;;;6.66;79.80;100968.91;5048736;28;19921;-82
2022/11/14 00:29:38;;;;;;;;;;;;;;;6.47;80.37;100970.22;5049198;28;19994;-82
2022/11/14 00:32:04;;;;;;;;;;;;;;;6.25;81.04;100938.28;5048782;28;19963;-82
2022/11/14 00:34:29;;;;;;;;;;;;;;;6.50;80.63;100957.19;5049069;28;19917;-82
2022/11/14 00:36:54;;;;;;;;;;;;;;;6.42;81.11;100953.53;5049192;28;20102;-82
2022/11/14 00:39:20;;;;;;;;;;;;;;;6.63;81.49;100950.50;5049265;28;20007;-82
2022/11/14 00:41:45;;;;;;;;;;;;;;;6.47;82.08;100948.38;5048779;28;20031;-82
2022/11/14 00:44:10;;;;;;;;;;;;;;;6.57;82.28;100942.50;5049020;28;19913;-81
2022/11/14 00:46:36;;;;;;;;;;;;;;;6.59;81.81;100938.16;5048212;28;19925;-82
2022/11/14 00:49:01;;;;;;;;;;;;;;;6.57;82.12;100935.50;5047608;28;20390;-82
2022/11/14 00:51:26;;;;;;;;;;;;;;;6.74;81.96;100937.59;5048694;28;20382;-81
2022/11/14 00:53:52;;;;;;;;;;;;;;;6.88;81.40;100932.63;5049138;28;19974;-82
2022/11/14 00:56:17;;;;;;;;;;;;;;;6.73;82.50;100936.69;5048744;28;19923;-82
2022/11/14 00:58:43;;;;;;;;;;;;;;;6.92;82.41;100932.72;5048261;28;20011;-81
2022/11/14 01:01:08;;;;;;;;;;;;;;;6.76;83.71;100921.00;5048556;28;20390;-81
2022/11/14 01:03:33;;;;;;;;;;;;;;;6.90;84.23;100923.91;5047911;28;19946;-81
2022/11/14 01:06:02;;;;;;;;;;;;;;;6.86;83.97;100897.59;5048289;28;19931;-81
2022/11/14 01:08:28;;;;;;;;;;;;;;;6.90;84.38;100918.66;5048580;28;19916;-81
2022/11/14 01:10:53;;;;;;;;;;;;;;;6.85;84.35;100930.81;5048279;28;19917;-81
2022/11/14 01:13:18;;;;;;;;;;;;;;;7.11;83.76;100919.97;5048140;28;19924;-81
2022/11/14 01:15:45;;;;;;;;;;;;;;;7.26;82.36;100916.72;5048291;28;19923;-81
2022/11/14 01:18:11;;;;;;;;;;;;;;;7.27;82.20;100913.22;5047955;28;19920;-81
2022/11/14 01:20:37;;;;;;;;;;;;;;;7.22;81.55;100915.78;5048153;28;20417;-81
2022/11/14 01:23:03;;;;;;;;;;;;;;;7.31;80.13;100915.94;5047994;28;19912;-82
2022/11/14 01:25:28;;;;;;;;;;;;;;;7.03;79.30;100921.53;5048066;28;19917;-82
2022/11/14 01:27:53;;;;;;;;;;;;;;;6.82;79.58;100921.13;5048335;28;20031;-82
2022/11/14 01:30:18;;;;;;;;;;;;;;;6.81;79.62;100921.09;5047803;28;19927;-81
2022/11/14 01:32:44;;;;;;;;;;;;;;;6.88;79.98;100917.75;5048121;28;19917;-82
2022/11/14 01:35:09;;;;;;;;;;;;;;;6.82;79.02;100921.13;5047957;28;19924;-82
2022/11/14 01:37:34;;;;;;;;;;;;;;;6.83;78.71;100922.03;5047581;28;20373;-82
2022/11/14 01:40:00;;;;;;;;;;;;;;;6.75;79.89;100916.66;5047596;28;20023;-81
2022/11/14 01:42:25;;;;;;;;;;;;;;;6.69;79.31;100915.63;5047681;28;20023;-81
2022/11/14 01:44:51;;;;;;;;;;;;;;;6.66;79.38;100913.84;5047759;28;19948;-81
2022/11/14 01:47:18;;;;;;;;;;;;;;;6.61;79.71;100908.50;5047806;28;19924;-81
2022/11/14 01:49:45;;;;;;;;;;;;;;;6.80;79.06;100908.88;5047289;28;19963;-81
2022/11/14 01:52:13;;;;;;;;;;;;;;;6.70;78.39;100914.78;5046997;28;19917;-81
2022/11/14 01:54:42;;;;;;;;;;;;;;;6.82;78.53;100912.41;5047761;28;19924;-81
2022/11/14 01:57:09;;;;;;;;;;;;;;;6.74;78.15;100914.00;5047495;28;19923;-79
2022/11/14 01:59:36;;;;;;;;;;;;;;;6.74;77.92;100914.00;5047175;28;19948;-81
2022/11/14 02:02:05;;;;;;;;;;;;;;;6.62;78.28;100902.38;5047493;28;20293;-82
2022/11/14 02:04:32;;;;;;;;;;;;;;;6.74;77.63;100898.25;5047743;28;19989;-82
2022/11/14 02:06:59;;;;;;;;;;;;;;;6.65;77.97;100892.84;5047436;28;19916;-82
2022/11/14 02:09:26;;;;;;;;;;;;;;;6.67;77.54;100898.97;5047384;28;20370;-82
2022/11/14 02:11:53;;;;;;;;;;;;;;;6.68;77.49;100904.25;5045731;28;19921;-82
2022/11/14 02:14:19;;;;;;;;;;;;;;;6.43;77.50;100897.63;5047519;28;19977;-82
2022/11/14 02:16:44;;;;;;;;;;;;;;;6.26;77.61;100895.53;5047013;28;19917;-82
2022/11/14 02:19:12;;;;;;;;;;;;;;;6.33;77.36;100895.66;5047203;28;20011;-82
2022/11/14 02:21:38;;;;;;;;;;;;;;;6.27;77.04;100894.69;5045692;28;20446;-82
2022/11/14 02:24:04;;;;;;;;;;;;;;;6.26;77.40;100895.53;5046898;28;20059;-80
2022/11/14 02:26:29;;;;;;;;;;;;;;;6.56;76.41;100889.16;5047290;28;19913;-80
2022/11/14 02:28:56;;;;;;;;;;;;;;;6.34;76.08;100890.44;5046010;28;19927;-81
2022/11/14 02:31:21;;;;;;;;;;;;;;;6.23;76.26;100889.34;5047227;28;19913;-79
2022/11/14 02:33:47;;;;;;;;;;;;;;;6.20;75.62;100884.91;5046829;28;19924;-81
2022/11/14 02:36:12;;;;;;;;;;;;;;;6.02;75.58;100889.75;5047274;28;19913;-81
2022/11/14 02:38:37;;;;;;;;;;;;;;;6.15;75.16;100881.31;5047106;28;19944;-81
2022/11/14 02:41:02;;;;;;;;;;;;;;;6.16;75.46;100887.44;5047280;28;19963;-81
2022/11/14 02:43:28;;;;;;;;;;;;;;;6.14;75.25;100881.28;5047295;28;19929;-81
2022/11/14 02:45:53;;;;;;;;;;;;;;;5.99;74.98;100885.31;5046943;28;19920;-80
2022/11/14 02:48:18;;;;;;;;;;;;;;;5.98;75.03;100885.28;5047017;28;19981;-81
2022/11/14 02:50:46;;;;;;;;;;;;;;;5.92;74.77;100878.16;5047089;28;20014;-81
2022/11/14 02:53:12;;;;;;;;;;;;;;;5.94;74.96;100884.28;5046879;28;19920;-81
2022/11/14 02:55:37;;;;;;;;;;;;;;;5.90;74.56;100885.97;5045489;28;19920;-82
2022/11/14 02:58:02;;;;;;;;;;;;;;;5.94;74.46;100881.66;5047342;28;19912;-82
2022/11/14 03:00:28;;;;;;;;;;;;;;;5.93;74.20;100874.66;5047355;28;20374;-82
2022/11/14 03:02:53;;;;;;;;;;;;;;;5.81;74.70;100882.22;5046825;28;19919;-82
2022/11/14 03:05:19;;;;;;;;;;;;;;;5.75;74.95;100885.59;5046858;28;19927;-82
2022/11/14 03:07:44;;;;;;;;;;;;;;;5.60;75.17;100883.50;5046233;28;19920;-82
2022/11/14 03:10:10;;;;;;;;;;;;;;;5.66;75.44;100899.34;5046930;28;20398;-82
2022/11/14 03:12:35;;;;;;;;;;;;;;;5.77;75.18;100896.13;5050410;28;20314;-81
2022/11/14 03:15:01;;;;;;;;;;;;;;;5.65;74.02;100900.19;5050540;28;19970;-82
2022/11/14 03:17:29;;;;;;;;;;;;;;;5.44;72.95;100907.50;5050560;28;19916;-82
2022/11/14 03:19:54;;;;;;;;;;;;;;;5.33;73.55;100902.00;5050521;28;19917;-82
2022/11/14 03:22:20;;;;;;;;;;;;;;;5.17;73.87;100904.25;5050178;28;19992;-82
2022/11/14 03:24:45;;;;;;;;;;;;;;;5.22;74.20;100914.84;5048812;28;19917;-81
2022/11/14 03:27:10;;;;;;;;;;;;;;;5.25;74.28;100904.47;5050820;28;19952;-81
2022/11/14 03:29:36;;;;;;;;;;;;;;;5.12;74.69;100902.34;5050501;28;19940;-81
2022/11/14 03:32:01;;;;;;;;;;;;;;;5.23;74.97;100900.88;5050101;28;19935;-81
2022/11/14 03:34:26;;;;;;;;;;;;;;;5.13;75.15;100897.16;5050133;28;19917;-81
2022/11/14 03:36:52;;;;;;;;;;;;;;;5.12;75.64;100903.22;5050118;28;19921;-81
2022/11/14 03:39:17;;;;;;;;;;;;;;;5.24;74.94;100909.66;5049984;28;19913;-80
2022/11/14 03:41:42;;;;;;;;;;;;;;;5.13;74.88;100899.78;5050337;28;19917;-81
2022/11/14 03:44:08;;;;;;;;;;;;;;;5.26;74.56;100905.31;5050864;28;19924;-81
2022/11/14 03:46:33;;;;;;;;;;;;;;;5.10;74.80;100902.31;5049762;28;19920;-81
2022/11/14 03:48:58;;;;;;;;;;;;;;;4.97;74.32;100897.59;5036691;28;20300;-82
2022/11/14 03:51:24;;;;;;;;;;;;;;;4.74;74.40;100896.94;5046056;28;19913;-82
2022/11/14 03:53:49;;;;;;;;;;;;;;;4.87;74.83;100899.06;5045504;28;19924;-82
2022/11/14 03:56:14;;;;;;;;;;;;;;;4.86;74.84;100894.69;5050072;28;19920;-82
2022/11/14 03:58:39;;;;;;;;;;;;;;;5.02;73.81;100901.22;5049926;28;19913;-81
2022/11/14 04:01:05;;;;;;;;;;;;;;;4.99;73.99;100896.78;5050033;28;19916;-82
2022/11/14 04:03:30;;;;;;;;;;;;;;;4.94;74.05;100893.19;5049570;28;19913;-83
2022/11/14 04:05:55;;;;;;;;;;;;;;;4.84;73.95;100894.63;5049185;28;20633;-82
2022/11/14 04:08:21;;;;;;;;;;;;;;;4.73;74.75;100901.31;5049428;28;19916;-83
2022/11/14 04:10:47;;;;;;;;;;;;;;;4.59;74.88;100900.91;5049508;28;20445;-82
2022/11/14 04:13:12;;;;;;;;;;;;;;;4.43;75.83;100896.06;5048198;28;19920;-81
2022/11/14 04:15:38;;;;;;;;;;;;;;;4.74;74.84;100903.09;5052834;28;19993;-81
2022/11/14 04:18:03;;;;;;;;;;;;;;;4.80;74.95;100898.03;5069270;28;19919;-81
2022/11/14 04:20:28;;;;;;;;;;;;;;;4.94;74.61;100895.78;5069557;28;19912;-80
2022/11/14 04:22:54;;;;;;;;;;;;;;;5.10;74.04;100904.94;5067479;28;19917;-82
2022/11/14 04:25:19;;;;;;;;;;;;;;;5.09;74.02;100897.91;5032796;28;19975;-82
2022/11/14 04:27:44;;;;;;;;;;;;;;;4.93;73.80;100893.13;5049149;28;19992;-83
2022/11/14 04:30:10;;;;;;;;;;;;;;;4.73;74.53;100896.09;5036976;28;19921;-82
2022/11/14 04:32:35;;;;;;;;;;;;;;;4.96;74.67;100893.22;5048094;28;20314;-80
2022/11/14 04:35:01;;;;;;;;;;;;;;;4.99;74.28;100891.56;5037419;28;19978;-81
2022/11/14 04:37:26;;;;;;;;;;;;;;;5.04;74.50;100893.44;5048064;28;20592;-82
2022/11/14 04:39:51;;;;;;;;;;;;;;;5.04;74.24;100896.91;5054711;28;19985;-82
2022/11/14 04:42:17;;;;;;;;;;;;;;;5.06;74.62;100889.97;5049073;28;19916;-83
2022/11/14 04:44:42;;;;;;;;;;;;;;;4.96;74.48;100896.72;5040783;28;19923;-83
2022/11/14 04:47:07;;;;;;;;;;;;;;;4.94;74.94;100897.50;5044789;28;19943;-82
2022/11/14 04:49:33;;;;;;;;;;;;;;;4.91;74.61;100897.41;5046418;28;19967;-81
2022/11/14 04:51:58;;;;;;;;;;;;;;;4.80;75.06;100900.66;5045331;28;19925;-81
2022/11/14 04:54:23;;;;;;;;;;;;;;;4.78;74.90;100899.69;5042022;28;20386;-82
2022/11/14 04:56:48;;;;;;;;;;;;;;;4.79;75.41;100898.00;5045727;28;20375;-83
2022/11/14 04:59:14;;;;;;;;;;;;;;;4.72;74.16;100904.75;5045814;28;20307;-84
2022/11/14 05:01:39;;;;;;;;;;;;;;;4.61;74.78;100914.91;5044704;28;19921;-80
2022/11/14 05:04:05;;;;;;;;;;;;;;;4.44;74.87;100910.94;5045733;28;19920;-81
2022/11/14 05:06:30;;;;;;;;;;;;;;;4.36;74.25;100915.94;5047618;28;19982;-81
2022/11/14 05:08:55;;;;;;;;;;;;;;;4.18;74.94;100915.38;5047035;28;19921;-81
2022/11/14 05:11:20;;;;;;;;;;;;;;;4.13;76.28;100912.63;5033691;28;20407;-80
2022/11/14 05:13:46;;;;;;;;;;;;;;;4.47;75.66;100918.84;5028482;28;19939;-81
2022/11/14 05:16:12;;;;;;;;;;;;;;;4.43;75.49;100923.13;5048074;28;20402;-79
2022/11/14 05:18:37;;;;;;;;;;;;;;;4.37;75.64;100916.81;5047260;28;19943;-79
2022/11/14 05:21:03;;;;;;;;;;;;;;;4.38;76.18;100929.03;5040973;28;20390;-79
2022/11/14 05:23:28;;;;;;;;;;;;;;;4.30;75.26;100916.63;5046994;28;20344;-78
2022/11/14 05:28:56;;;;;;;;;;;;;;;4.21;76.81;100926.78;5032595;28;20016;-79
2022/11/14 05:31:21;;;;;;;;;;;;;;;4.20;76.94;100922.44;5052976;28;19936;-78
2022/11/14 05:33:47;;;;;;;;;;;;;;;4.32;76.89;100921.00;5052456;28;19908;-78
2022/11/14 05:36:14;;;;;;;;;;;;;;;4.32;77.00;100924.50;5052795;28;19909;-81
2022/11/14 05:38:40;;;;;;;;;;;;;;;4.30;77.59;100934.03;5053196;28;19961;-82
2022/11/14 05:41:06;;;;;;;;;;;;;;;4.53;77.42;100937.31;5051348;28;20015;-81
2022/11/14 05:43:31;;;;;;;;;;;;;;;4.34;77.54;100932.38;5053368;28;19916;-81
2022/11/14 05:46:03;;;;;;;;;;;;;;;4.48;77.56;100945.03;5053277;28;19932;-81
2022/11/14 05:48:29;;;;;;;;;;;;;;;4.64;77.12;100946.34;5052439;28;19959;-80
2022/11/14 05:50:55;;;;;;;;;;;;;;;4.50;77.11;100947.69;5052766;28;19963;-81
2022/11/14 05:53:20;;;;;;;;;;;;;;;4.47;76.52;100950.22;5052984;28;19915;-79
2022/11/14 05:55:45;;;;;;;;;;;;;;;4.53;77.03;100952.13;5052729;28;20259;-80
2022/11/14 05:58:11;;;;;;;;;;;;;;;4.45;76.43;100949.28;5052962;28;20469;-80
2022/11/14 06:00:36;;;;;;;;;;;;;;;4.36;76.88;100939.44;5052486;28;19913;-80
2022/11/14 06:03:01;;;;;;;;;;;;;;;4.21;77.61;100952.03;5052381;28;19952;-80
2022/11/14 06:05:26;;;;;;;;;;;;;;;4.60;77.39;100941.00;5052627;28;20361;-82
2022/11/14 06:07:56;;;;;;;;;;;;;;;4.63;77.65;100949.84;5052582;28;19995;-81
2022/11/14 06:10:21;;;;;;;;;;;;;;;4.57;78.14;100948.75;5052900;28;19916;-81
2022/11/14 06:12:47;;;;;;;;;;;;;;;4.78;77.43;100944.13;5052413;28;19909;-81
2022/11/14 06:15:12;;;;;;;;;;;;;;;4.81;77.94;100949.47;5052334;28;19915;-80
2022/11/14 06:17:38;;;;;;;;;;;;;;;5.03;77.61;100950.06;5051296;28;19915;-81
2022/11/14 06:20:03;;;;;;;;;;;;;;;5.17;77.45;100948.72;5049231;28;20376;-80
2022/11/14 06:22:29;;;;;;;;;;;;;;;5.30;78.28;100941.19;5032695;28;19913;-80
2022/11/14 06:24:54;;;;;;;;;;;;;;;5.18;77.61;100947.00;5032268;28;19916;-80
2022/11/14 06:27:19;;;;;;;;;;;;;;;5.20;78.18;100940.97;5032250;28;19945;-80
2022/11/14 06:29:44;;;;;;;;;;;;;;;5.08;78.55;100947.56;5032604;28;20004;-80
2022/11/14 06:32:10;;;;;;;;;;;;;;;5.14;79.08;100956.50;5042028;28;20290;-79
2022/11/14 06:34:35;;;;;;;;;;;;;;;5.31;78.45;100963.88;5052403;28;19909;-79
2022/11/14 06:37:00;;;;;;;;;;;;;;;4.92;79.18;100954.13;5051765;28;19912;-81
2022/11/14 06:39:26;;;;;;;;;;;;;;;4.92;79.89;100960.22;5051819;28;20007;-82
2022/11/14 06:41:51;;;;;;;;;;;;;;;5.09;79.41;100957.19;5052494;28;19909;-81
2022/11/14 06:44:16;;;;;;;;;;;;;;;5.19;79.05;100957.50;5052519;28;19905;-81
2022/11/14 06:46:42;;;;;;;;;;;;;;;5.26;79.53;100960.28;5055941;28;20003;-81
2022/11/14 06:49:07;;;;;;;;;;;;;;;5.11;79.27;100948.56;5056205;28;19909;-81
2022/11/14 06:51:32;;;;;;;;;;;;;;;5.28;79.66;100948.97;5056132;28;19912;-81
2022/11/14 06:53:58;;;;;;;;;;;;;;;5.57;79.36;100948.88;5056040;28;19915;-81
2022/11/14 06:56:23;;;;;;;;;;;;;;;5.68;78.74;100944.78;5056004;28;19909;-81
2022/11/14 06:58:49;;;;;;;;;;;;;;;5.42;79.46;100938.88;5055802;28;19912;-81
2022/11/14 07:01:21;;;;;;;;;;;;;;;5.68;78.31;100939.53;5055975;28;19909;-82
2022/11/14 07:03:46;;;;;;;;;;;;;;;5.72;78.51;100943.13;5056177;28;20008;-82
2022/11/14 07:06:13;;;;;;;;;;;;;;;5.92;78.68;100938.38;5056218;28;19944;-82
2022/11/14 07:08:39;;;;;;;;;;;;;;;6.01;78.44;100937.72;5055669;28;19913;-82
2022/11/14 07:11:09;;;;;;;;;;;;;;;6.10;78.45;100948.41;5055889;28;19916;-82
2022/11/14 07:13:35;;;;;;;;;;;;;;;6.24;78.69;100943.50;5055497;28;19958;-83
2022/11/14 07:16:01;;;;;;;;;;;;;;;6.13;78.91;100948.50;5055643;28;19912;-83
2022/11/14 07:18:28;;;;;;;;;;;;;;;6.22;79.93;100946.09;5055722;28;19905;-83
2022/11/14 07:20:57;;;;;;;;;;;;;;;6.38;80.25;100941.19;5055824;28;19915;-82
2022/11/14 07:23:23;;;;;;;;;;;;;;;6.51;79.34;100942.34;5055470;28;19916;-83
2022/11/14 07:25:48;;;;;;;;;;;;;;;6.59;78.74;100946.88;5055212;28;19908;-82
2022/11/14 07:28:13;;;;;;;;;;;;;;;6.75;78.86;100941.97;5055214;28;19916;-82
2022/11/14 07:30:40;;;;;;;;;;;;;;;6.94;78.85;100935.38;5055266;28;19920;-83
2022/11/14 07:33:05;;;;;;;;;;;;;;;6.77;79.83;100937.66;5055131;28;20003;-83
2022/11/14 07:35:30;;;;;;;;;;;;;;;7.10;78.57;100940.03;5055041;28;20011;-83
2022/11/14 07:38:02;;;;;;;;;;;;;;;7.61;77.21;100934.81;5055745;28;19947;-83
2022/11/14 07:40:27;;;;;;;;;;;;;;;7.64;77.61;100933.13;5055878;28;19909;-83
2022/11/14 07:43:00;;;;;;;;;;;;;;;7.64;78.13;100938.38;5055106;28;19966;-84
2022/11/14 07:45:25;;;;;;;;;;;;;;;7.31;78.83;100950.06;5055610;28;19960;-83
2022/11/14 07:47:55;;;;;;;;;;;;;;;7.41;78.03;100945.84;5053838;28;19962;-83
2022/11/14 07:50:20;;;;;;;;;;;;;;;7.75;77.84;100938.56;5055293;28;19909;-83
2022/11/14 07:52:49;;;;;;;;;;;;;;;7.73;78.19;100932.41;5054658;28;19915;-83
2022/11/14 07:55:14;;;;;;;;;;;;;;;7.96;76.64;100932.78;5054944;28;20003;-83
2022/11/14 07:57:40;;;;;;;;;;;;;;;7.86;77.00;100929.13;5054114;28;20022;-83
2022/11/14 08:00:05;;;;;;;;;;;;;;;7.81;78.18;100933.41;5054907;28;19909;-83
2022/11/14 08:02:30;;;;;;;;;;;;;;;7.59;79.13;100929.56;5055174;28;19958;-83
2022/11/14 08:04:56;;;;;;;;;;;;;;;7.94;77.88;100936.22;5054857;28;19908;-83
2022/11/14 08:07:21;;;;;;;;;;;;;;;8.05;77.27;100935.53;5054951;28;19909;-82
2022/11/14 08:09:46;;;;;;;;;;;;;;;8.02;79.36;100930.25;5054533;28;19909;-82
2022/11/14 08:12:12;;;;;;;;;;;;;;;8.35;78.75;100933.34;5054818;28;19908;-82
2022/11/14 08:14:37;;;;;;;;;;;;;;;8.42;77.49;100937.81;5055176;28;19974;-82
2022/11/14 08:17:02;;;;;;;;;;;;;;;8.37;77.16;100928.97;5054282;28;20004;-82
2022/11/14 08:19:28;;;;;;;;;;;;;;;8.39;77.60;100924.63;5054459;28;20373;-82
2022/11/14 08:21:53;;;;;;;;;;;;;;;8.71;78.91;100930.34;5054321;28;19908;-83
2022/11/14 08:24:18;;;;;;;;;;;;;;;8.99;77.96;100922.78;5054184;28;20401;-83
2022/11/14 08:26:44;;;;;;;;;;;;;;;9.39;76.45;100923.19;5054442;28;19909;-82
2022/11/14 08:29:09;;;;;;;;;;;;;;;9.65;75.24;100925.16;5054510;28;19920;-83
2022/11/14 08:31:34;;;;;;;;;;;;;;;9.43;75.20;100922.31;5054036;28;19909;-84
2022/11/14 08:33:59;;;;;;;;;;;;;;;9.57;75.81;100918.94;5054154;28;19913;-83
2022/11/14 08:36:25;;;;;;;;;;;;;;;9.42;75.19;100925.84;5054453;28;20274;-83
2022/11/14 08:38:50;;;;;;;;;;;;;;;9.75;74.94;100919.09;5053958;28;20412;-83
2022/11/14 08:41:15;;;;;;;;;;;;;;;9.66;76.40;100919.03;5054165;28;19923;-82
2022/11/14 08:43:41;;;;;;;;;;;;;;;9.99;75.36;100923.69;5053840;28;19913;-83
2022/11/14 08:46:06;;;;;;;;;;;;;;;9.97;75.90;100914.84;5053736;28;19909;-82
2022/11/14 08:48:32;;;;;;;;;;;;;;;10.29;75.23;100908.03;5054203;28;19951;-83
2022/11/14 08:51:00;;;;;;;;;;;;;;;10.36;75.82;100905.47;5054339;28;20003;-83
2022/11/14 08:53:26;;;;;;;;;;;;;;;10.38;75.51;100905.50;5053987;28;19909;-83
2022/11/14 08:55:51;;;;;;;;;;;;;;;10.37;74.71;100906.34;5053940;28;19915;-83
2022/11/14 08:58:16;;;;;;;;;;;;;;;10.67;72.95;100904.72;5053671;28;20405;-83
2022/11/14 09:00:42;;;;;;;;;;;;;;;10.61;72.82;100889.72;5053855;28;19909;-83
2022/11/14 09:03:08;;;;;;;;;;;;;;;10.41;73.95;100894.94;5053681;28;19909;-83
2022/11/14 09:05:33;;;;;;;;;;;;;;;10.54;73.39;100895.88;5054040;28;19943;-83
2022/11/14 09:07:58;;;;;;;;;;;;;;;10.63;72.59;100895.00;5052921;28;19912;-83
2022/11/14 09:10:24;;;;;;;;;;;;;;;10.80;72.61;100897.72;5054336;28;19920;-83
2022/11/14 09:12:54;;;;;;;;;;;;;;;10.89;72.42;100892.47;5052612;28;20283;-83
2022/11/14 09:15:19;;;;;;;;;;;;;;;10.95;71.29;100886.31;5053600;28;19908;-83
2022/11/14 09:17:44;;;;;;;;;;;;;;;10.85;70.94;100886.31;5053346;28;19909;-83
2022/11/14 09:20:10;;;;;;;;;;;;;;;10.89;70.46;100881.91;5053709;28;20339;-83
2022/11/14 09:22:35;;;;;;;;;;;;;;;10.85;70.08;100878.38;5053262;28;19920;-83
2022/11/14 09:25:00;;;;;;;;;;;;;;;11.21;69.36;100870.53;5053646;28;19916;-83
2022/11/14 09:27:26;;;;;;;;;;;;;;;10.91;68.44;100875.75;5052980;28;19908;-83
2022/11/14 09:29:51;;;;;;;;;;;;;;;11.05;69.79;100874.91;5053216;28;19913;-83
2022/11/14 09:32:16;;;;;;;;;;;;;;;11.22;69.49;100865.25;5052859;28;20011;-83
2022/11/14 09:34:44;;;;;;;;;;;;;;;11.19;68.21;100856.44;5053167;28;19931;-83
2022/11/14 09:37:09;;;;;;;;;;;;;;;11.50;67.95;100857.34;5053308;28;19909;-83
2022/11/14 09:39:39;;;;;;;;;;;;;;;11.69;67.90;100854.69;5052851;28;19908;-83
2022/11/14 09:42:23;;;;;;;;;;;;;;;11.62;68.18;100849.41;5053433;28;19958;-83
2022/11/14 09:44:51;;;;;;;;;;;;;;;11.69;69.66;100844.97;5052736;28;19916;-83
2022/11/14 09:47:23;;;;;;;;;;;;;;;12.10;66.75;100836.13;5052624;28;19952;-83
2022/11/14 09:49:50;;;;;;;;;;;;;;;12.19;65.62;100835.22;5053019;28;20274;-83
2022/11/14 09:52:18;;;;;;;;;;;;;;;12.25;65.34;100829.91;5052659;28;19909;-83
2022/11/14 09:54:48;;;;;;;;;;;;;;;12.27;66.54;100828.13;5052530;28;20020;-83
2022/11/14 09:57:15;;;;;;;;;;;;;;;12.10;66.41;100825.53;5052877;28;19952;-83
2022/11/14 10:02:53;;;;;;;;;;;;;;;12.58;65.94;100820.03;5052720;28;20385;-83
2022/11/14 10:05:30;;;;;;;;;;;;;;;12.60;65.64;100823.56;5052910;28;19906;-82
2022/11/14 10:11:03;;;;;;;;;;;;;;;12.84;63.55;100813.72;5052608;28;19926;-81
2022/11/14 10:13:28;;;;;;;;;;;;;;;12.82;63.42;100805.78;5052573;28;19913;-81
2022/11/14 10:16:00;;;;;;;;;;;;;;;12.80;64.18;100804.03;5052412;28;20008;-81
2022/11/14 10:18:25;;;;;;;;;;;;;;;12.83;64.25;100804.00;5052766;28;19915;-81
2022/11/14 10:20:54;;;;;;;;;;;;;;;12.92;64.05;100790.72;5052281;28;20297;-81
2022/11/14 10:23:25;;;;;;;;;;;;;;;12.94;63.57;100790.69;5052850;28;19912;-82
2022/11/14 10:25:52;;;;;;;;;;;;;;;13.03;63.49;100791.50;5052386;28;19911;-81
2022/11/14 10:28:28;;;;;;;;;;;;;;;13.20;63.02;100786.06;5052693;28;19909;-81
2022/11/14 10:34:25;;;;;;;;;;;;;;;13.26;62.91;100767.47;5052651;28;20446;-82
2022/11/14 10:36:58;;;;;;;;;;;;;;;13.22;64.21;100757.81;5052286;28;20062;-82
2022/11/14 10:42:38;;;;;;;;;;;;;;;13.30;62.98;100762.13;5052614;28;20401;-81
2022/11/14 10:45:06;;;;;;;;;;;;;;;13.07;63.81;100757.94;5052510;28;19909;-82
2022/11/14 10:47:43;;;;;;;;;;;;;;;13.36;62.96;100754.16;5051922;28;19908;-82
2022/11/14 10:53:23;;;;;;;;;;;;;;;13.48;63.41;100739.94;5052695;28;20310;-83
2022/11/14 10:55:49;;;;;;;;;;;;;;;13.49;63.58;100739.03;5050803;28;20293;-82
2022/11/14 10:58:15;;;;;;;;;;;;;;;13.42;63.30;100739.09;5052138;28;19909;-82
2022/11/14 11:03:43;;;;;;;;;;;;;;;13.71;63.19;100731.72;5052358;28;20003;-82
2022/11/14 11:06:23;;;;;;;;;;;;;;;13.79;62.09;100732.50;5051693;28;20003;-82
2022/11/14 11:14:35;;;;;;;;;;;;;;;13.81;63.85;100717.47;5052270;28;19916;-81
2022/11/14 11:17:14;;;;;;;;;;;;;;;13.81;62.96;100714.81;5051455;28;19908;-81
2022/11/14 11:19:40;;;;;;;;;;;;;;;13.81;62.93;100708.63;5052356;28;19913;-82
2022/11/14 11:22:21;;;;;;;;;;;;;;;13.72;62.84;100710.50;5052233;28;19908;-81
2022/11/14 11:24:46;;;;;;;;;;;;;;;13.71;62.58;100706.06;5051527;28;19913;-82
2022/11/14 11:27:17;;;;;;;;;;;;;;;13.96;63.23;100697.81;5051875;28;19916;-81
2022/11/14 11:29:42;;;;;;;;;;;;;;;14.09;62.45;100688.81;5051481;28;19986;-80
2022/11/14 11:32:08;;;;;;;;;;;;;;;13.98;62.42;100688.09;5053193;28;20405;-80
2022/11/14 11:34:34;;;;;;;;;;;;;;;13.86;63.00;100693.56;5055013;28;19909;-78
2022/11/14 11:37:29;;;;;;;;;;;;;;;13.90;62.12;100689.94;5055773;28;19908;-79
2022/11/14 11:39:55;;;;;;;;;;;;;;;14.05;63.22;100679.13;5042465;28;19942;-79
2022/11/14 11:42:25;;;;;;;;;;;;;;;14.11;63.55;100675.53;5055372;28;20000;-79
2022/11/14 11:44:54;;;;;;;;;;;;;;;14.16;63.01;100681.63;5055174;28;19909;-80
2022/11/14 11:47:20;;;;;;;;;;;;;;;14.28;63.51;100676.16;5055387;28;19915;-81
2022/11/14 11:49:46;;;;;;;;;;;;;;;14.06;63.58;100674.72;5054911;28;20003;-80
2022/11/14 11:55:20;;;;;;;;;;;;;;;14.38;62.26;100668.94;5055096;28;20313;-80
2022/11/14 11:58:06;;;;;;;;;;;;;;;14.53;62.43;100661.63;5054981;28;19960;-81
2022/11/14 12:00:31;;;;;;;;;;;;;;;14.42;62.40;100667.09;5024242;28;19908;-80
2022/11/14 12:02:58;;;;;;;;;;;;;;;14.19;63.48;100660.34;5054686;28;20393;-81
2022/11/14 12:05:29;;;;;;;;;;;;;;;14.20;62.99;100658.59;5054735;28;19916;-79
2022/11/14 12:08:00;;;;;;;;;;;;;;;14.24;63.18;100654.97;5054534;28;19966;-79
2022/11/14 12:10:28;;;;;;;;;;;;;;;14.33;62.33;100650.44;5054870;28;20289;-80
2022/11/14 12:12:57;;;;;;;;;;;;;;;14.56;61.41;100646.53;5054599;28;19950;-79
2022/11/14 12:15:31;;;;;;;;;;;;;;;14.49;61.56;100653.72;5054346;28;19909;-80
2022/11/14 12:18:08;;;;;;;;;;;;;;;14.55;61.38;100650.09;5053537;28;20314;-79
2022/11/14 12:20:42;;;;;;;;;;;;;;;14.51;61.45;100649.25;5054278;28;19936;-79
2022/11/14 12:23:26;;;;;;;;;;;;;;;14.50;60.91;100644.88;5054786;28;20365;-79
2022/11/14 12:26:05;;;;;;;;;;;;;;;14.42;62.18;100637.91;5054386;28;19932;-79
2022/11/14 12:28:49;;;;;;;;;;;;;;;14.54;62.12;100643.03;5054493;28;19909;-80
2022/11/14 12:31:18;;;;;;;;;;;;;;;14.73;61.58;100638.31;5054551;28;19917;-80
2022/11/14 12:36:46;;;;;;;;;;;;;;;14.90;60.09;100635.34;5054310;28;20370;-80
2022/11/14 12:39:30;;;;;;;;;;;;;;;14.88;60.33;100628.34;5054044;28;19908;-80
2022/11/14 12:42:06;;;;;;;;;;;;;;;14.90;60.97;100635.34;5054456;28;19913;-80
2022/11/14 12:44:36;;;;;;;;;;;;;;;14.93;59.91;100631.78;5054334;28;19951;-80
2022/11/14 12:47:04;;;;;;;;;;;;;;;14.99;60.16;100629.00;5054429;28;19909;-79
2022/11/14 12:49:37;;;;;;;;;;;;;;;14.68;60.91;100629.56;5053790;28;19948;-80
2022/11/14 12:52:02;;;;;;;;;;;;;;;14.87;59.72;100624.78;5054171;28;20003;-79
2022/11/14 12:54:44;;;;;;;;;;;;;;;14.90;60.27;100626.53;5053940;28;20004;-79
2022/11/14 12:57:46;;;;;;;;;;;;;;;14.94;60.43;100620.25;5054036;28;19916;-79
2022/11/14 13:00:03;;;;;;;;;;;;;;;14.83;61.47;100625.75;5053221;28;19919;-80
2022/11/14 13:02:55;;;;;;;;;;;;;;;14.97;60.77;100622.84;5054050;28;19909;-80
2022/11/14 13:05:45;;;;;;;;;;;;;;;15.13;60.75;100620.78;5054195;28;19955;-80
2022/11/14 13:08:16;;;;;;;;;;;;;;;15.16;60.22;100618.94;5053737;28;20029;-80
2022/11/14 13:10:42;;;;;;;;;;;;;;;15.27;60.16;100624.03;5054040;28;19908;-81
2022/11/14 13:22:17;;;;;;;;;;;;;;;15.09;61.22;100608.44;5053483;28;20373;-81
2022/11/14 13:24:56;;;;;;;;;;;;;;;15.18;61.07;100609.16;5045272;28;19908;-81